Time;durP1;ratioP1;P1;durP2;ratioP2;P2;SDS_P1;SDS_P2;PMS_P1;PMS_P2;Temp;Humidity;BMP_temperature;BMP_pressure;BME280_temperature;BME280_humidity;BME280_pressure;Samples;Min_cycle;Max_cycle;Signal;HPM_P1;HPM_P2
2021/12/15 00:02:24;;;;;;;10.93;5.53;;;;;;;5.78;62.75;99570.84;5144818;28;20043;-94
2021/12/15 00:04:53;;;;;;;12.70;6.25;;;;;;;5.52;63.97;99572.47;5143699;28;20047;-95
2021/12/15 00:07:20;;;;;;;8.68;4.20;;;;;;;5.92;61.68;99577.97;5138491;28;20055;-94
2021/12/15 00:09:46;;;;;;;6.72;3.90;;;;;;;6.58;58.83;99572.06;5137416;28;20043;-93
2021/12/15 00:12:16;;;;;;;9.50;5.10;;;;;;;6.34;61.02;99575.50;5143023;28;20050;-96
2021/12/15 00:14:43;;;;;;;6.97;4.28;;;;;;;6.25;61.16;99563.16;5139721;28;20039;-94
2021/12/15 00:17:10;;;;;;;7.32;3.85;;;;;;;6.28;59.93;99557.88;5138122;28;20126;-94
2021/12/15 00:19:37;;;;;;;8.57;4.72;;;;;;;6.13;61.05;99563.13;5139913;28;20043;-95
2021/12/15 00:22:05;;;;;;;8.25;4.70;;;;;;;6.05;62.03;99570.13;5138441;28;20055;-94
2021/12/15 00:24:32;;;;;;;8.98;4.80;;;;;;;5.61;64.33;99591.88;5136652;28;20485;-94
2021/12/15 00:26:59;;;;;;;7.43;4.05;;;;;;;5.65;63.24;99564.63;5137907;28;20052;-93
2021/12/15 00:29:27;;;;;;;9.15;4.70;;;;;;;6.00;62.70;99606.19;5137503;28;20044;-93
2021/12/15 00:31:53;;;;;;;8.07;5.03;;;;;;;5.62;64.04;99580.47;5135319;28;20164;-94
2021/12/15 00:34:20;;;;;;;6.43;3.55;;;;;;;6.23;59.92;99564.03;5121821;28;20395;-95
2021/12/15 00:36:47;;;;;;;7.25;4.68;;;;;;;6.42;60.36;99564.94;5125665;28;20131;-95
2021/12/15 00:39:19;;;;;;;7.85;3.55;;;;;;;6.79;58.67;99593.22;5125099;28;20044;-94
2021/12/15 00:41:46;;;;;;;7.45;3.72;;;;;;;6.81;58.16;99561.53;5124245;28;20075;-94
2021/12/15 00:44:12;;;;;;;5.63;3.47;;;;;;;7.15;56.15;99553.56;5123508;28;20040;-95
2021/12/15 00:46:40;;;;;;;5.95;3.70;;;;;;;7.32;56.10;99564.13;5122523;28;20043;-95
2021/12/15 00:49:09;;;;;;;8.18;3.72;;;;;;;7.13;56.68;99571.19;5125000;28;20074;-95
2021/12/15 00:51:36;;;;;;;5.67;3.63;;;;;;;7.27;56.92;99587.09;5103245;28;20040;-94
2021/12/15 00:54:06;;;;;;;7.10;3.85;;;;;;;6.75;57.88;99570.31;5105352;28;20051;-96
2021/12/15 00:56:32;;;;;;;7.80;3.83;;;;;;;6.67;58.25;99592.31;5104914;28;20044;-93
2021/12/15 00:58:57;;;;;;;5.43;3.42;;;;;;;6.98;56.36;99574.72;5100569;28;20085;-94
2021/12/15 01:01:24;;;;;;;6.70;3.80;;;;;;;7.18;55.94;99580.91;5100906;28;20044;-94
2021/12/15 01:03:51;;;;;;;5.60;3.38;;;;;;;7.18;56.06;99569.47;5100750;28;20501;-94
2021/12/15 01:06:21;;;;;;;6.38;3.42;;;;;;;7.22;56.01;99591.47;5103416;28;20044;-93
2021/12/15 01:08:55;;;;;;;7.03;3.75;;;;;;;7.22;55.99;99570.31;5101804;28;20040;-94
2021/12/15 01:11:43;;;;;;;7.40;3.83;;;;;;;7.17;56.02;99580.91;5103085;28;20040;-94
2021/12/15 01:20:23;;;;;;;6.38;3.83;;;;;;;7.19;55.82;99595.88;5137888;27;20387;-94
2021/12/15 01:22:54;;;;;;;8.30;3.72;;;;;;;7.22;56.30;99602.94;5139594;27;20067;-93
2021/12/15 01:25:26;;;;;;;7.15;4.07;;;;;;;7.28;55.80;99604.72;5114129;27;20123;-93
2021/12/15 01:27:53;;;;;;;10.32;4.18;;;;;;;7.29;55.92;99598.56;5104744;28;20801;-92
2021/12/15 01:30:24;;;;;;;6.13;3.22;;;;;;;7.25;55.55;99580.91;5098874;28;20055;-92
2021/12/15 01:32:50;;;;;;;8.15;3.90;;;;;;;7.35;55.05;99582.66;5105452;28;20067;-94
2021/12/15 01:35:17;;;;;;;6.55;3.60;;;;;;;7.49;54.66;99586.16;5095743;28;20048;-92
2021/12/15 01:37:45;;;;;;;6.45;3.05;;;;;;;7.53;55.26;99595.88;5096524;28;20044;-92
2021/12/15 01:40:20;;;;;;;6.40;3.30;;;;;;;7.39;55.46;99576.47;5109903;28;20040;-94
2021/12/15 01:42:46;;;;;;;5.78;3.08;;;;;;;7.33;55.39;99572.09;5095581;28;20046;-93
2021/12/15 01:48:14;;;;;;;6.80;3.53;;;;;;;7.53;55.73;99605.59;5157739;27;20731;-92
2021/12/15 01:50:41;;;;;;;5.15;3.10;;;;;;;7.31;55.70;99570.34;5128886;27;20039;-95
2021/12/15 01:53:09;;;;;;;6.60;3.22;;;;;;;7.29;55.90;99561.50;5133875;27;20043;-93
2021/12/15 01:55:35;;;;;;;6.85;3.17;;;;;;;7.43;55.41;99580.88;5114955;28;20044;-91
2021/12/15 01:58:01;;;;;;;4.68;2.80;;;;;;;7.48;55.63;99573.84;5123662;28;20112;-92
2021/12/15 02:00:34;;;;;;;5.47;2.90;;;;;;;7.45;55.23;99584.41;5133558;28;20054;-94
2021/12/15 02:03:00;;;;;;;5.65;3.30;;;;;;;7.54;55.04;99581.75;5135191;28;20047;-92
2021/12/15 02:05:30;;;;;;;5.75;2.90;;;;;;;7.46;55.57;99572.94;5133152;28;20073;-93
2021/12/15 02:07:59;;;;;;;5.93;3.10;;;;;;;7.41;55.40;99554.41;5138041;27;20058;-93
2021/12/15 02:10:28;;;;;;;7.00;3.38;;;;;;;7.55;55.24;99565.00;5131862;27;20075;-93
2021/12/15 02:12:57;;;;;;;4.20;2.90;;;;;;;7.64;55.26;99576.44;5120048;27;20097;-96
2021/12/15 02:15:26;;;;;;;5.75;2.92;;;;;;;7.55;55.37;99557.03;5133672;28;20040;-94
2021/12/15 02:17:53;;;;;;;4.72;2.63;;;;;;;7.48;56.03;99578.22;5141146;27;20040;-94
2021/12/15 02:20:20;;;;;;;5.25;2.72;;;;;;;7.26;56.52;99561.50;5140537;27;20394;-93
2021/12/15 02:22:48;;;;;;;5.85;2.92;;;;;;;7.19;57.05;99574.72;5141449;27;20051;-95
2021/12/15 02:25:16;;;;;;;4.80;2.80;;;;;;;6.90;57.86;99547.44;5141150;27;20043;-93
2021/12/15 02:27:43;;;;;;;5.32;2.90;;;;;;;6.84;57.65;99542.13;5119159;28;20040;-92
2021/12/15 02:43:40;;;;;;;6.28;3.17;;;;;;;7.06;56.04;99538.59;5096713;27;20368;-93
2021/12/15 02:46:06;;;;;;;7.20;3.20;;;;;;;7.13;56.25;99557.97;5095549;28;20048;-90
2021/12/15 02:48:33;;;;;;;6.07;3.28;;;;;;;7.16;55.94;99548.28;5086633;28;20045;-92
2021/12/15 02:50:59;;;;;;;6.80;3.78;;;;;;;6.97;56.36;99528.03;5079123;28;20036;-92
2021/12/15 02:53:25;;;;;;;5.78;3.20;;;;;;;6.96;56.63;99528.88;5093059;28;20047;-93
2021/12/15 02:55:51;;;;;;;6.15;3.40;;;;;;;7.04;56.78;99537.69;5089282;28;20041;-95
2021/12/15 02:58:20;;;;;;;6.28;2.90;;;;;;;7.05;56.97;99525.34;5087933;28;20548;-92
2021/12/15 03:07:10;;;;;;;5.82;3.00;;;;;;;7.27;55.90;99537.69;5142996;27;20378;-94
2021/12/15 03:18:34;;;;;;;5.38;2.75;;;;;;;7.20;55.92;99557.13;5141647;27;20379;-93
2021/12/15 03:21:05;;;;;;;7.00;2.78;;;;;;;7.14;55.46;99528.88;5140160;27;20048;-96
2021/12/15 03:23:41;;;;;;;5.13;3.30;;;;;;;7.01;56.94;99539.50;5143412;27;20051;-94
2021/12/15 03:26:08;;;;;;;6.28;3.45;;;;;;;6.73;57.90;99548.28;5144142;27;20385;-95
2021/12/15 03:35:01;;;;;;;5.20;2.92;;;;;;;6.95;56.28;99535.94;5077758;27;20383;-95
2021/12/15 03:37:29;;;;;;;5.13;3.00;;;;;;;6.82;56.94;99531.53;5081949;28;20060;-94
2021/12/15 03:40:00;;;;;;;5.30;3.00;;;;;;;6.89;55.27;99535.06;5077955;28;20056;-95
2021/12/15 03:49:01;;;;;;;8.07;3.70;;;;;;;5.96;60.42;99529.63;5040106;28;20026;-95
2021/12/15 03:51:32;;;;;;;5.45;3.50;;;;;;;5.82;59.83;99536.56;5040132;28;20041;-95
2021/12/15 03:53:58;;;;;;;6.97;4.47;;;;;;;5.48;61.53;99539.03;5039248;28;20129;-94
2021/12/15 03:56:24;;;;;;;6.85;3.78;;;;;;;5.93;58.41;99563.88;5035595;28;20105;-94
2021/12/15 03:58:52;;;;;;;8.13;3.92;;;;;;;5.79;58.37;99525.09;5038226;28;20046;-94
2021/12/15 04:01:24;;;;;;;6.38;3.00;;;;;;;6.11;57.20;99567.50;5040186;28;20074;-94
2021/12/15 04:03:54;;;;;;;5.40;3.20;;;;;;;5.99;57.57;99533.16;5041783;28;20052;-95
2021/12/15 04:06:22;;;;;;;4.30;2.60;;;;;;;6.16;56.01;99537.59;5038835;28;20118;-94
2021/12/15 04:08:50;;;;;;;7.05;3.47;;;;;;;6.16;56.75;99542.00;5044638;28;20052;-95
2021/12/15 04:11:19;;;;;;;6.45;3.60;;;;;;;5.97;58.31;99547.22;5048156;28;20049;-94
2021/12/15 04:13:47;;;;;;;6.97;3.20;;;;;;;5.75;57.29;99540.94;5043339;28;20527;-94
2021/12/15 04:16:37;;;;;;;8.25;3.60;;;;;;;6.00;56.34;99558.66;5061923;28;20053;-96
2021/12/15 04:19:05;;;;;;;5.43;3.20;;;;;;;6.10;55.50;99558.72;5083375;28;20044;-95
2021/12/15 04:21:32;;;;;;;6.45;3.50;;;;;;;6.37;54.29;99542.03;5083467;28;20127;-96
2021/12/15 04:24:11;;;;;;;5.35;3.17;;;;;;;6.59;54.13;99576.44;5086601;28;20495;-94
2021/12/15 04:26:37;;;;;;;4.93;2.90;;;;;;;6.48;54.11;99559.69;5088235;28;20045;-93
2021/12/15 04:29:05;;;;;;;7.95;3.60;;;;;;;6.32;54.66;99557.00;5087627;28;20071;-95
2021/12/15 04:31:37;;;;;;;8.65;3.97;;;;;;;6.02;56.61;99539.31;5090252;28;20069;-96
2021/12/15 04:34:09;;;;;;;5.80;3.72;;;;;;;5.88;55.72;99541.88;5090693;28;20052;-94
2021/12/15 04:36:38;;;;;;;6.25;3.45;;;;;;;6.14;56.04;99575.47;5087681;28;20033;-93
2021/12/15 04:39:26;;;;;;;5.68;3.30;;;;;;;6.24;55.47;99552.59;5079094;28;20041;-95
2021/12/15 04:41:57;;;;;;;5.57;2.95;;;;;;;6.64;54.07;99582.63;5081030;28;20045;-95
2021/12/15 04:44:27;;;;;;;4.88;3.10;;;;;;;6.47;55.19;99550.00;5080439;28;20045;-95
2021/12/15 04:47:00;;;;;;;5.80;3.00;;;;;;;6.52;54.36;99541.19;5071544;28;20059;-95
2021/12/15 04:49:35;;;;;;;7.93;3.22;;;;;;;6.63;54.41;99548.25;5070662;28;20044;-94
2021/12/15 04:52:01;;;;;;;5.10;2.92;;;;;;;6.79;53.37;99561.50;5049426;28;20069;-94
2021/12/15 04:54:30;;;;;;;4.95;2.95;;;;;;;6.76;53.96;99577.34;5049261;28;20069;-95
2021/12/15 04:56:57;;;;;;;9.15;3.10;;;;;;;6.76;54.18;99558.84;5048236;28;20049;-95
2021/12/15 04:59:23;;;;;;;5.07;2.60;;;;;;;6.61;54.25;99561.47;5048930;28;20057;-94
2021/12/15 05:01:52;;;;;;;6.63;3.38;;;;;;;6.62;55.05;99597.59;5054761;28;20053;-94
2021/12/15 05:04:20;;;;;;;5.35;2.92;;;;;;;6.47;55.36;99571.16;5049772;28;20042;-94
2021/12/15 05:06:47;;;;;;;7.63;3.53;;;;;;;6.25;55.44;99579.00;5051971;28;20050;-94
2021/12/15 05:09:15;;;;;;;5.80;3.78;;;;;;;6.17;57.24;99589.53;5053611;28;20554;-93
2021/12/15 05:11:44;;;;;;;7.78;4.20;;;;;;;5.85;57.78;99575.28;5052629;28;20061;-95
2021/12/15 05:14:11;;;;;;;8.90;4.22;;;;;;;5.63;58.98;99604.19;5052875;28;20518;-93
2021/12/15 05:16:49;;;;;;;8.55;4.40;;;;;;;5.63;56.84;99588.34;5048390;28;20067;-95
2021/12/15 05:19:15;;;;;;;11.13;5.85;;;;;;;5.36;59.06;99583.81;5053207;28;20114;-95
2021/12/15 05:21:42;;;;;;;11.93;5.53;;;;;;;4.96;60.73;99594.00;5049520;28;20056;-95
2021/12/15 05:24:22;;;;;;;7.97;4.40;;;;;;;5.10;58.30;99594.16;5048378;28;20041;-95
2021/12/15 05:27:18;;;;;;;10.55;5.05;;;;;;;5.12;60.02;99614.38;5052407;28;20041;-96
2021/12/15 05:29:48;;;;;;;9.95;5.25;;;;;;;4.70;61.89;99604.31;5054133;28;20519;-96
2021/12/15 05:32:18;;;;;;;11.23;6.32;;;;;;;4.38;63.15;99612.78;5052169;28;20093;-94
2021/12/15 05:34:46;;;;;;;;;;;;;;;4.11;64.82;99647.53;5047893;28;20050;-95
2021/12/15 05:37:13;;;;;;;13.03;7.07;;;;;;;3.82;65.79;99634.88;5048379;28;19972;-94
2021/12/15 05:39:40;;;;;;;11.35;6.00;;;;;;;3.61;66.35;99645.97;5049772;28;20071;-94
2021/12/15 05:42:06;;;;;;;12.40;7.10;;;;;;;3.64;66.76;99653.91;5047094;28;20041;-94
2021/12/15 05:44:33;;;;;;;11.05;6.47;;;;;;;3.55;66.88;99663.41;5047386;28;20464;-94
2021/12/15 05:47:05;;;;;;;9.85;6.28;;;;;;;3.48;66.73;99642.25;5049683;28;20092;-94
2021/12/15 05:49:32;;;;;;;11.07;6.30;;;;;;;3.45;66.62;99636.09;5050255;28;20049;-95
2021/12/15 05:51:59;;;;;;;12.38;6.68;;;;;;;3.59;66.31;99631.91;5051824;28;20049;-95
2021/12/15 05:54:25;;;;;;;5.00;3.38;;;;;;;4.67;61.85;99647.31;5048863;28;20072;-94
2021/12/15 05:56:52;;;;;;;7.85;3.83;;;;;;;4.63;61.78;99623.56;5051008;28;20029;-96
2021/12/15 05:59:18;;;;;;;12.05;5.20;;;;;;;4.88;62.21;99651.03;5050270;28;20041;-95
2021/12/15 06:01:44;;;;;;;6.40;3.08;;;;;;;4.97;60.88;99637.97;5049105;28;20048;-95
2021/12/15 06:04:13;;;;;;;7.05;3.95;;;;;;;5.25;60.69;99640.88;5051203;28;20041;-93
2021/12/15 06:06:40;;;;;;;11.10;5.13;;;;;;;5.33;60.25;99637.41;5045143;28;20045;-96
2021/12/15 06:09:08;;;;;;;11.60;5.47;;;;;;;5.34;59.76;99655.00;5041936;28;20049;-95
2021/12/15 06:11:34;;;;;;;7.20;3.08;;;;;;;5.64;57.79;99632.34;5046112;28;20045;-94
2021/12/15 06:14:01;;;;;;;10.80;5.80;;;;;;;5.54;59.31;99651.63;5050419;28;20060;-94
2021/12/15 06:16:27;;;;;;;7.35;3.70;;;;;;;5.47;58.96;99634.88;5043394;28;20038;-95
2021/12/15 06:18:53;;;;;;;8.73;5.03;;;;;;;5.51;59.03;99636.66;5047117;28;20093;-95
2021/12/15 06:21:28;;;;;;;7.40;4.30;;;;;;;5.69;58.93;99672.84;5046927;28;20053;-95
2021/12/15 06:23:55;;;;;;;8.25;3.17;;;;;;;5.68;58.81;99633.25;5041289;28;20069;-94
2021/12/15 06:26:21;;;;;;;7.32;3.90;;;;;;;6.29;56.90;99646.81;5043136;28;20492;-94
2021/12/15 06:28:48;;;;;;;5.57;3.05;;;;;;;6.70;54.42;99630.22;5040642;28;20038;-95
2021/12/15 06:31:17;;;;;;;5.18;2.67;;;;;;;6.74;54.49;99623.16;5042900;28;20119;-95
2021/12/15 06:33:45;;;;;;;5.13;3.05;;;;;;;6.71;54.81;99639.03;5043833;28;20037;-94
2021/12/15 06:36:13;;;;;;;6.40;3.65;;;;;;;6.68;54.54;99634.63;5041241;28;20132;-94
2021/12/15 06:41:53;;;;;;;6.45;3.25;;;;;;;6.88;53.40;99668.16;5161158;27;20381;-93
2021/12/15 06:44:19;;;;;;;6.47;3.55;;;;;;;6.91;52.90;99682.25;5152240;27;20074;-94
2021/12/15 07:03:12;;;;;;;6.72;3.47;;;;;;;6.70;55.00;99683.09;6180879;22;1437041;-96
2021/12/15 07:05:40;;;;;;;6.88;3.17;;;;;;;6.91;55.02;99670.78;6222914;23;20091;-94
2021/12/15 07:08:13;;;;;;;12.57;5.55;;;;;;;6.76;55.81;99667.22;6239990;23;20076;-96
2021/12/15 07:10:42;;;;;;;9.98;4.50;;;;;;;6.64;56.54;99666.34;6239495;22;20020;-95
2021/12/15 07:13:10;;;;;;;9.18;3.53;;;;;;;6.80;56.14;99673.41;6231637;23;20024;-94
2021/12/15 07:15:37;;;;;;;7.60;3.50;;;;;;;7.08;58.01;99677.00;6229968;23;20332;-95
2021/12/15 07:24:51;;;;;;;5.50;3.30;;;;;;;7.05;57.99;99695.53;6143819;23;20077;-95
2021/12/15 07:27:17;;;;;;;6.45;3.55;;;;;;;6.95;58.49;99693.72;6139588;23;20022;-93
2021/12/15 07:29:43;;;;;;;8.23;4.28;;;;;;;7.14;58.64;99714.03;6144125;23;20018;-95
2021/12/15 07:32:10;;;;;;;7.50;4.22;;;;;;;7.05;58.63;99699.91;6141928;23;20048;-96
2021/12/15 07:34:37;;;;;;;15.50;13.90;;;;;;;7.00;59.75;99697.25;6147716;23;20053;-96
2021/12/15 07:37:04;;;;;;;7.20;3.60;;;;;;;7.17;59.33;99700.81;6138383;23;20022;-96
2021/12/15 07:39:32;;;;;;;7.70;4.20;;;;;;;7.31;60.29;99729.94;6141746;23;20073;-96
2021/12/15 07:44:59;;;;;;;6.15;3.50;;;;;;;7.30;60.15;99696.41;5143886;27;20379;-95
2021/12/15 07:47:26;;;;;;;7.05;3.70;;;;;;;7.29;62.06;99684.09;5146052;27;20044;-94
2021/12/15 07:49:52;;;;;;;19.65;6.85;;;;;;;7.44;62.19;99683.22;5141908;27;20044;-94
2021/12/15 07:52:18;;;;;;;9.07;5.10;;;;;;;7.56;61.98;99706.16;5141864;27;20090;-94
2021/12/15 07:54:44;;;;;;;6.28;3.78;;;;;;;7.79;61.80;99714.09;5141522;27;20036;-94
2021/12/15 07:57:17;;;;;;;7.55;3.70;;;;;;;7.77;62.25;99699.97;5144878;27;20039;-95
2021/12/15 07:59:48;;;;;;;6.30;3.70;;;;;;;7.90;62.87;99704.38;5144160;27;20043;-95
2021/12/15 08:02:25;;;;;;;7.47;3.90;;;;;;;8.14;62.25;99750.25;5152037;27;20079;-96
2021/12/15 08:04:53;;;;;;;6.15;3.30;;;;;;;8.06;61.57;99725.53;5149162;27;20039;-94
2021/12/15 08:07:19;;;;;;;7.78;3.90;;;;;;;8.09;61.95;99722.84;5141635;27;20042;-93
2021/12/15 08:09:45;;;;;;;6.82;3.33;;;;;;;8.21;61.94;99717.53;5139476;27;20114;-94
2021/12/15 08:12:16;;;;;;;8.57;3.95;;;;;;;8.23;62.64;99713.13;5143911;27;20050;-95
2021/12/15 08:14:42;;;;;;;6.80;3.25;;;;;;;8.25;62.74;99715.78;5142801;27;20496;-94
2021/12/15 08:17:09;;;;;;;7.65;4.18;;;;;;;8.33;61.65;99744.03;5143854;27;20047;-94
2021/12/15 08:19:37;;;;;;;5.65;3.30;;;;;;;8.21;62.94;99738.75;5141435;27;20505;-94
2021/12/15 08:22:04;;;;;;;7.78;4.57;;;;;;;8.12;62.80;99715.81;5140531;27;20511;-92
2021/12/15 08:24:30;;;;;;;7.50;4.22;;;;;;;8.08;64.04;99719.34;5137446;27;20043;-95
2021/12/15 08:26:56;;;;;;;7.30;4.40;;;;;;;8.11;63.69;99724.66;5138721;27;20071;-95
2021/12/15 08:29:22;;;;;;;6.65;3.30;;;;;;;8.25;63.58;99729.03;5135043;27;20035;-94
2021/12/15 08:31:48;;;;;;;7.53;3.72;;;;;;;8.43;63.38;99729.88;5135281;27;20047;-93
2021/12/15 08:34:14;;;;;;;10.30;4.28;;;;;;;8.46;64.23;99718.41;5138534;27;20043;-94
2021/12/15 08:36:49;;;;;;;9.90;3.75;;;;;;;8.79;64.70;99773.06;5138878;27;20042;-96
2021/12/15 08:39:16;;;;;;;7.53;4.97;;;;;;;8.89;64.36;99773.03;5138919;27;20039;-93
2021/12/15 08:41:46;;;;;;;5.53;3.33;;;;;;;8.78;64.10;99726.25;5140234;27;20036;-94
2021/12/15 08:44:15;;;;;;;6.78;3.60;;;;;;;8.92;63.46;99733.25;5137309;27;20458;-96
2021/12/15 08:46:46;;;;;;;8.30;4.05;;;;;;;8.83;63.42;99721.78;5137885;27;20043;-96
2021/12/15 08:49:16;;;;;;;9.88;4.78;;;;;;;8.89;64.12;99731.50;5138081;27;20103;-93
2021/12/15 08:51:43;;;;;;;9.02;4.50;;;;;;;9.06;64.11;99742.00;5139917;27;20043;-94
2021/12/15 08:54:14;;;;;;;9.02;4.20;;;;;;;9.11;63.32;99749.94;5136235;27;20043;-94
2021/12/15 08:56:42;;;;;;;9.32;4.57;;;;;;;8.97;63.67;99718.19;5124735;28;20050;-95
2021/12/15 08:59:09;;;;;;;9.15;4.80;;;;;;;9.03;63.29;99720.81;5125571;28;20040;-95
2021/12/15 09:01:36;;;;;;;9.45;4.95;;;;;;;9.28;63.19;99745.41;5125423;28;20044;-96
2021/12/15 09:04:02;;;;;;;9.88;5.40;;;;;;;9.31;63.03;99748.06;5122861;28;20040;-93
2021/12/15 09:06:29;;;;;;;10.68;4.80;;;;;;;9.30;63.77;99748.94;5123205;28;20065;-95
2021/12/15 09:08:56;;;;;;;13.43;5.28;;;;;;;9.38;62.70;99735.63;5125953;28;20105;-95
2021/12/15 09:11:25;;;;;;;11.18;5.70;;;;;;;9.46;62.51;99717.88;5126157;28;20043;-95
2021/12/15 09:13:56;;;;;;;11.65;5.13;;;;;;;9.49;63.12;99757.66;5125015;28;20089;-94
2021/12/15 09:16:24;;;;;;;10.20;5.43;;;;;;;9.58;63.31;99768.22;5124367;28;20044;-94
2021/12/15 09:18:52;;;;;;;12.13;6.05;;;;;;;9.44;62.83;99732.94;5126673;28;20050;-95
2021/12/15 09:21:20;;;;;;;14.27;6.82;;;;;;;9.38;63.50;99751.56;5124357;27;20083;-93
2021/12/15 09:23:50;;;;;;;13.60;6.47;;;;;;;9.37;63.93;99760.44;5124499;28;20047;-95
2021/12/15 09:26:20;;;;;;;12.88;6.70;;;;;;;9.42;62.95;99742.69;5125936;28;20047;-96
2021/12/15 09:28:50;;;;;;;11.15;6.05;;;;;;;9.35;63.34;99747.16;5125340;28;20048;-93
2021/12/15 09:31:16;;;;;;;13.25;6.15;;;;;;;9.49;63.97;99764.75;5125424;28;20106;-93
2021/12/15 09:33:45;;;;;;;13.68;6.40;;;;;;;9.62;63.92;99735.44;5125652;28;20039;-94
2021/12/15 09:36:14;;;;;;;9.98;5.47;;;;;;;9.77;64.10;99742.41;5127925;28;20047;-95
2021/12/15 09:38:41;;;;;;;16.40;6.60;;;;;;;9.91;64.41;99742.31;5128265;28;20047;-95
2021/12/15 09:41:16;;;;;;;14.45;6.10;;;;;;;9.88;63.51;99737.00;5125763;28;20052;-95
2021/12/15 09:43:50;;;;;;;32.15;14.13;;;;;;;9.78;63.45;99728.25;5125738;28;20058;-96
2021/12/15 09:46:29;;;;;;;15.50;7.45;;;;;;;9.81;64.24;99730.00;5121962;28;20039;-95
2021/12/15 10:19:38;;;;;;;9.68;5.05;;;;;;;10.53;63.07;99725.75;5137069;27;20380;-94
2021/12/15 10:22:10;;;;;;;12.45;6.32;;;;;;;10.61;64.07;99729.22;5135702;27;20078;-94
2021/12/15 10:24:45;;;;;;;19.60;13.07;;;;;;;10.55;62.47;99715.97;5135407;27;20073;-90
2021/12/15 10:27:14;;;;;;;13.60;7.32;;;;;;;10.60;64.03;99720.34;5135824;27;20065;-92
2021/12/15 10:29:56;;;;;;;15.48;7.70;;;;;;;10.70;61.88;99723.78;5134347;28;20050;-94
2021/12/15 10:32:28;;;;;;;21.38;7.65;;;;;;;10.72;62.96;99731.75;5134549;27;20069;-96
2021/12/15 10:35:04;;;;;;;28.00;13.88;;;;;;;10.43;63.54;99693.97;5135675;27;20043;-93
2021/12/15 10:37:32;;;;;;;23.70;10.13;;;;;;;10.46;63.12;99707.22;5135519;27;20099;-93
2021/12/15 10:40:14;;;;;;;14.73;6.63;;;;;;;10.45;62.25;99713.44;5137590;27;20048;-91
2021/12/15 10:42:40;;;;;;;14.20;5.35;;;;;;;10.42;62.94;99700.16;5117491;28;20381;-95
2021/12/15 10:45:09;;;;;;;14.82;7.38;;;;;;;10.40;63.24;99711.72;5123212;28;20089;-92
2021/12/15 10:47:42;;;;;;;12.50;5.15;;;;;;;10.57;62.88;99711.53;5137096;27;20054;-94
2021/12/15 10:50:17;;;;;;;30.63;10.38;;;;;;;10.59;62.65;99699.09;5132189;27;20496;-93
2021/12/15 10:52:52;;;;;;;22.23;8.23;;;;;;;10.92;62.08;99737.69;5137220;27;20050;-93
2021/12/15 10:55:18;;;;;;;14.27;6.00;;;;;;;10.74;62.18;99698.03;5136695;28;20053;-94
2021/12/15 10:57:48;;;;;;;30.40;13.57;;;;;;;10.90;62.18;99694.25;5136543;27;20040;-93
2021/12/15 11:00:19;;;;;;;;;;;;;;;10.97;62.55;99719.88;5137923;28;20065;-94
2021/12/15 11:02:45;;;;;;;7.57;4.40;;;;;;;10.93;61.82;99730.56;5135948;27;19915;-93
2021/12/15 11:05:15;;;;;;;6.75;3.95;;;;;;;10.67;61.94;99686.59;5135496;27;20512;-94
2021/12/15 11:07:44;;;;;;;11.82;4.57;;;;;;;10.73;62.18;99686.47;5134840;27;20042;-93
2021/12/15 11:10:11;;;;;;;;;;;;;;;10.98;62.95;99718.09;5138350;27;20043;-92
2021/12/15 11:12:42;;;;;;;8.52;4.28;;;;;;;11.02;61.57;99715.38;5137395;27;20327;-95
2021/12/15 11:15:14;;;;;;;13.38;5.25;;;;;;;10.80;62.32;99690.84;5135729;27;20055;-95
2021/12/15 11:17:44;;;;;;;11.43;5.03;;;;;;;11.02;62.97;99710.06;5134538;27;20040;-95
2021/12/15 11:20:17;;;;;;;10.60;4.97;;;;;;;10.98;62.45;99686.16;5136752;27;20035;-94
2021/12/15 11:22:51;;;;;;;10.18;5.25;;;;;;;11.18;62.54;99721.34;5135499;27;20043;-94
2021/12/15 11:25:36;;;;;;;8.95;4.43;;;;;;;11.20;61.76;99713.34;5138033;27;20108;-93
2021/12/15 11:28:07;;;;;;;12.45;5.78;;;;;;;11.05;62.32;99687.84;5134200;27;20097;-95
2021/12/15 11:30:37;;;;;;;8.57;4.30;;;;;;;11.25;61.45;99703.50;5121779;27;20463;-91
2021/12/15 11:33:07;;;;;;;7.82;3.72;;;;;;;11.34;60.80;99708.69;5120754;28;20075;-94
2021/12/15 11:35:38;;;;;;;60.20;20.20;;;;;;;11.23;62.04;99686.69;5122141;28;20035;-95
2021/12/15 11:38:09;;;;;;;7.90;3.80;;;;;;;11.33;61.11;99704.28;5123165;28;20043;-95
2021/12/15 11:40:40;;;;;;;11.00;5.03;;;;;;;11.13;61.28;99685.94;5123573;28;20164;-95
2021/12/15 11:43:08;;;;;;;14.13;5.57;;;;;;;11.17;61.49;99682.34;5123066;28;20039;-92
2021/12/15 11:45:38;;;;;;;12.48;6.00;;;;;;;11.31;60.68;99711.41;5120848;28;20046;-93
2021/12/15 11:48:22;;;;;;;7.07;3.38;;;;;;;11.25;60.17;99709.72;5120295;28;20044;-94
2021/12/15 11:50:52;;;;;;;10.90;6.18;;;;;;;11.24;60.61;99715.94;5114487;28;20139;-94
2021/12/15 11:53:39;;;;;;;7.10;3.92;;;;;;;11.17;61.53;99694.75;5118618;28;20111;-91
2021/12/15 11:56:28;;;;;;;13.52;6.55;;;;;;;11.29;60.57;99714.09;5107523;28;20050;-95
2021/12/15 11:59:03;;;;;;;8.23;4.60;;;;;;;11.20;60.50;99686.72;5120436;28;20071;-94
2021/12/15 12:01:48;;;;;;;8.25;3.95;;;;;;;11.25;60.61;99692.84;5118508;28;20047;-92
2021/12/15 12:04:18;;;;;;;6.95;3.55;;;;;;;11.26;60.29;99691.97;5099348;28;20047;-94
2021/12/15 12:06:49;;;;;;;9.07;4.57;;;;;;;11.19;60.77;99690.28;5099230;28;20124;-96
2021/12/15 12:09:17;;;;;;;13.63;5.68;;;;;;;11.07;60.97;99684.25;5106663;28;20043;-94
2021/12/15 12:11:48;;;;;;;11.15;5.50;;;;;;;11.21;61.04;99708.03;5120471;28;20048;-95
2021/12/15 12:14:26;;;;;;;11.65;6.90;;;;;;;11.31;60.34;99717.59;5119491;28;20497;-93
2021/12/15 12:16:55;;;;;;;7.75;4.32;;;;;;;11.13;61.15;99685.94;5119006;28;20043;-94
2021/12/15 12:19:23;;;;;;;9.38;4.30;;;;;;;11.35;60.44;99713.13;5119443;28;20048;-94
2021/12/15 12:21:51;;;;;;;10.07;5.43;;;;;;;11.11;61.60;99671.78;5123312;28;20508;-95
2021/12/15 12:24:18;;;;;;;6.00;3.20;;;;;;;11.17;60.91;99692.09;5122424;28;20401;-95
2021/12/15 12:26:45;;;;;;;10.30;4.47;;;;;;;11.16;60.72;99682.34;5121404;28;20088;-94
2021/12/15 12:29:13;;;;;;;8.10;3.97;;;;;;;11.19;60.66;99691.19;5121423;28;20043;-94
2021/12/15 12:31:41;;;;;;;11.00;3.88;;;;;;;11.16;60.76;99679.69;5117060;28;20500;-95
2021/12/15 12:34:07;;;;;;;9.75;4.25;;;;;;;11.25;60.07;99696.41;5115222;28;20044;-94
2021/12/15 12:36:35;;;;;;;8.60;4.10;;;;;;;11.20;60.42;99692.94;5098754;28;20051;-94
2021/12/15 12:39:06;;;;;;;6.35;3.60;;;;;;;11.21;60.55;99691.13;5100518;28;20512;-95
2021/12/15 12:41:41;;;;;;;6.72;3.50;;;;;;;11.17;61.63;99695.66;5109145;28;20056;-96
2021/12/15 12:44:10;;;;;;;10.27;4.18;;;;;;;11.20;61.29;99706.25;5118973;28;20515;-96
2021/12/15 12:46:45;;;;;;;8.25;3.88;;;;;;;11.13;61.62;99706.38;5120058;28;20039;-96
2021/12/15 13:08:46;;;;;;;10.80;4.15;;;;;;;11.03;61.21;99694.97;6272668;22;20395;-95
2021/12/15 13:11:17;;;;;;;13.00;6.22;;;;;;;11.26;61.67;99726.59;6229242;23;20023;-94
2021/12/15 13:13:58;;;;;;;11.38;5.40;;;;;;;11.19;61.83;99715.16;6228075;23;20446;-93
2021/12/15 13:16:29;;;;;;;20.10;7.78;;;;;;;11.06;62.41;99708.22;6228159;23;20016;-94
2021/12/15 13:18:59;;;;;;;17.63;7.28;;;;;;;11.20;62.63;99726.66;6229426;23;20451;-94
2021/12/15 13:22:01;;;;;;;13.68;5.97;;;;;;;11.23;62.22;99735.50;6232318;23;20024;-94
2021/12/15 13:31:10;;;;;;;8.23;4.32;;;;;;;11.25;61.63;99706.16;5116943;27;20392;-93
2021/12/15 13:33:49;;;;;;;6.90;3.85;;;;;;;11.12;61.90;99689.50;5115810;28;20497;-92
2021/12/15 13:36:17;;;;;;;10.68;4.43;;;;;;;11.06;62.22;99705.53;5116013;28;20047;-94
2021/12/15 13:38:46;;;;;;;9.27;4.90;;;;;;;11.17;61.93;99719.63;5102051;28;20515;-93
2021/12/15 13:41:36;;;;;;;12.73;5.25;;;;;;;11.17;62.75;99722.28;5103880;28;20520;-94
2021/12/15 13:44:17;;;;;;;7.78;4.05;;;;;;;11.20;61.89;99724.00;5113277;28;20036;-93
2021/12/15 13:46:47;;;;;;;10.02;4.50;;;;;;;11.26;61.74;99735.44;5114452;28;20048;-92
2021/12/15 13:49:23;;;;;;;8.48;4.65;;;;;;;11.23;61.96;99746.16;5113680;28;20070;-92
2021/12/15 13:52:14;;;;;;;12.98;5.82;;;;;;;11.14;61.26;99729.41;5113956;28;20130;-92
2021/12/15 13:55:00;;;;;;;8.73;4.53;;;;;;;11.04;62.15;99723.34;5114301;28;20135;-94
2021/12/15 13:57:30;;;;;;;9.63;4.57;;;;;;;11.05;62.25;99722.44;5095093;28;20044;-91
2021/12/15 14:00:17;;;;;;;9.30;4.47;;;;;;;10.96;62.30;99706.59;5097758;28;20042;-94
2021/12/15 14:03:08;;;;;;;8.57;4.45;;;;;;;10.90;62.75;99707.56;5115073;28;20024;-95
2021/12/15 14:05:39;;;;;;;8.98;5.05;;;;;;;10.81;62.18;99695.25;5113105;28;20087;-94
2021/12/15 14:08:08;;;;;;;11.93;4.85;;;;;;;10.93;62.17;99730.56;5115333;28;20052;-94